Time;durP1;ratioP1;P1;durP2;ratioP2;P2;SDS_P1;SDS_P2;PMS_P1;PMS_P2;Temp;Humidity;BMP_temperature;BMP_pressure;BME280_temperature;BME280_humidity;BME280_pressure;Samples;Min_cycle;Max_cycle;Signal;HPM_P1;HPM_P2
2022/05/01 00:00:59;;;;;;;9.48;6.25;;;;;;;13.31;48.23;102404.75;4951346;28;124507;-74
2022/05/01 00:03:31;;;;;;;8.25;5.75;;;;;;;13.30;48.37;102403.91;4936925;28;115581;-74
2022/05/01 00:06:00;;;;;;;9.73;6.38;;;;;;;13.26;48.19;102402.22;4930773;28;113743;-74
2022/05/01 00:08:27;;;;;;;9.38;6.10;;;;;;;13.24;48.63;102409.38;4948944;28;124091;-74
2022/05/01 00:10:55;;;;;;;8.43;6.05;;;;;;;13.22;48.25;102411.19;4914637;28;124226;-73
2022/05/01 00:13:44;;;;;;;9.40;6.03;;;;;;;13.21;48.55;102409.47;4928942;28;115431;-74
2022/05/01 00:16:14;;;;;;;9.82;5.97;;;;;;;13.24;48.64;102409.38;4934230;28;114789;-74
2022/05/01 00:18:41;;;;;;;11.30;6.72;;;;;;;13.24;48.70;102409.38;4931684;28;124048;-74
2022/05/01 00:21:08;;;;;;;11.13;6.07;;;;;;;13.25;48.40;102401.34;4932125;28;125197;-74
2022/05/01 00:23:36;;;;;;;10.13;6.28;;;;;;;13.27;48.50;102398.63;4918508;28;114277;-73
2022/05/01 00:26:05;;;;;;;9.13;6.32;;;;;;;13.27;48.44;102409.28;4936766;28;114204;-74
2022/05/01 00:28:36;;;;;;;10.65;6.07;;;;;;;13.24;48.73;102398.72;4934026;28;124854;-74
2022/05/01 00:31:05;;;;;;;11.20;6.53;;;;;;;13.23;48.45;102399.66;4953857;28;123133;-74
2022/05/01 00:36:25;;;;;;;11.77;6.07;;;;;;;13.20;48.66;102402.41;4937391;28;113771;-73
2022/05/01 00:39:03;;;;;;;9.50;6.40;;;;;;;13.18;48.78;102399.78;4937203;28;124238;-73
2022/05/01 00:41:32;;;;;;;10.68;6.60;;;;;;;13.18;48.51;102393.59;4955832;28;123065;-73
2022/05/01 00:44:10;;;;;;;11.65;6.85;;;;;;;13.18;49.02;102404.25;4922956;28;114276;-73
2022/05/01 00:46:41;;;;;;;11.77;6.80;;;;;;;13.20;48.79;102397.06;4938066;28;113568;-73
2022/05/01 00:49:16;;;;;;;12.40;6.07;;;;;;;13.20;48.76;102402.41;4939144;28;125037;-73
2022/05/01 00:51:52;;;;;;;10.05;6.50;;;;;;;13.18;48.75;102394.47;4950213;28;122930;-73
2022/05/01 00:54:22;;;;;;;11.90;6.85;;;;;;;13.16;48.75;102390.13;4947987;28;116031;-73
2022/05/01 00:56:52;;;;;;;10.70;6.05;;;;;;;13.16;48.71;102390.13;4936392;28;114066;-73
2022/05/01 00:59:21;;;;;;;12.43;6.38;;;;;;;13.16;48.91;102390.13;4943403;28;124192;-73
2022/05/01 01:01:50;;;;;;;11.18;7.05;;;;;;;13.18;48.73;102382.97;4941239;28;123594;-74
2022/05/01 01:04:18;;;;;;;10.93;6.72;;;;;;;13.18;48.75;102388.28;4945322;28;115946;-74
2022/05/01 01:06:45;;;;;;;10.55;6.63;;;;;;;13.20;48.90;102386.44;4942286;28;114723;-73
2022/05/01 01:09:13;;;;;;;11.90;6.30;;;;;;;13.20;48.71;102381.13;4937460;28;123623;-73
2022/05/01 01:11:42;;;;;;;10.32;6.53;;;;;;;13.21;48.85;102377.56;4939256;28;123700;-74
2022/05/01 01:14:10;;;;;;;11.88;6.82;;;;;;;13.22;48.85;102384.59;4954895;28;113840;-73
2022/05/01 01:16:39;;;;;;;10.07;6.50;;;;;;;13.21;49.01;102377.56;4940319;28;113980;-73
2022/05/01 01:19:08;;;;;;;11.20;7.25;;;;;;;13.19;48.87;102379.38;4937709;28;125021;-73
2022/05/01 01:21:35;;;;;;;11.07;6.88;;;;;;;13.18;48.93;102382.97;4951795;28;124151;-73
2022/05/01 01:24:10;;;;;;;11.75;6.82;;;;;;;13.16;49.25;102379.47;4935709;28;114074;-73
2022/05/01 01:26:38;;;;;;;10.00;6.70;;;;;;;13.13;48.96;102374.25;4935741;28;114087;-73
2022/05/01 01:31:40;;;;;;;10.10;6.53;;;;;;;13.10;48.97;102379.69;4953916;28;123670;-73
2022/05/01 01:31:55;;;;;;;10.98;6.75;;;;;;;13.09;49.09;102383.25;4952272;28;123068;-73
2022/05/01 01:34:26;;;;;;;11.75;6.78;;;;;;;13.08;49.17;102373.53;4952381;28;113540;-73
2022/05/01 01:36:53;;;;;;;12.32;7.13;;;;;;;13.07;49.25;102374.44;4937151;28;114058;-73
2022/05/01 01:39:23;;;;;;;10.55;6.82;;;;;;;13.07;49.45;102385.06;4943639;28;123086;-73
2022/05/01 01:41:54;;;;;;;11.40;6.57;;;;;;;13.04;49.13;102381.59;4950290;28;123742;-73
2022/05/01 01:44:23;;;;;;;9.63;6.78;;;;;;;13.05;49.14;102386.00;4922980;28;114902;-73
2022/05/01 01:46:50;;;;;;;11.50;7.10;;;;;;;13.05;49.33;102383.34;4947759;28;114282;-74
2022/05/01 01:49:18;;;;;;;13.43;7.25;;;;;;;13.05;49.46;102378.03;4957995;28;124303;-75
2022/05/01 01:51:45;;;;;;;12.65;6.93;;;;;;;13.07;49.37;102379.75;4940340;28;123153;-74
2022/05/01 01:54:12;;;;;;;10.45;6.75;;;;;;;13.07;49.14;102382.41;4941954;28;114666;-73
2022/05/01 01:56:39;;;;;;;11.57;7.00;;;;;;;13.05;49.43;102378.03;4949774;28;114594;-74
2022/05/01 01:59:07;;;;;;;12.15;7.55;;;;;;;13.04;49.44;102376.28;4941941;28;123480;-73
2022/05/01 02:01:34;;;;;;;12.70;7.13;;;;;;;13.05;49.52;102377.13;4919161;28;123262;-73
2022/05/01 02:04:02;;;;;;;14.82;7.40;;;;;;;13.04;49.42;102376.28;4930823;28;113388;-74
2022/05/01 02:06:29;;;;;;;14.98;7.63;;;;;;;13.05;49.25;102372.72;4955302;28;112975;-74
2022/05/01 02:08:58;;;;;;;12.45;7.03;;;;;;;13.07;49.38;102374.44;4939460;28;125455;-73
2022/05/01 02:11:25;;;;;;;11.85;7.28;;;;;;;13.08;49.32;102370.88;4934689;28;124279;-74
2022/05/01 02:13:52;;;;;;;12.35;7.32;;;;;;;13.09;49.39;102372.59;4934061;28;113696;-74
2022/05/01 02:16:19;;;;;;;13.95;7.95;;;;;;;13.09;49.30;102361.97;4938461;28;113864;-73
2022/05/01 02:18:46;;;;;;;12.82;7.53;;;;;;;13.10;49.17;102361.06;4935898;28;123953;-74
2022/05/01 02:23:59;;;;;;;15.07;7.53;;;;;;;13.07;49.25;102358.47;4936170;28;114286;-75
2022/05/01 02:26:26;;;;;;;11.70;7.05;;;;;;;13.05;49.58;102356.75;4954187;28;114235;-74
2022/05/01 02:28:53;;;;;;;13.75;7.47;;;;;;;13.04;49.24;102354.13;4950761;28;123651;-74
2022/05/01 02:31:20;;;;;;;13.65;8.07;;;;;;;13.06;49.28;102357.63;4947374;28;122585;-73
2022/05/01 02:33:47;;;;;;;12.93;7.32;;;;;;;13.05;49.47;102355.84;4933736;28;114774;-74
2022/05/01 02:36:16;;;;;;;13.35;8.32;;;;;;;13.03;49.50;102358.59;4951483;28;114178;-73
2022/05/01 02:38:44;;;;;;;14.13;8.65;;;;;;;13.01;49.53;102354.22;4953359;28;124024;-74
2022/05/01 02:41:12;;;;;;;13.48;7.63;;;;;;;12.99;49.72;102351.59;4932586;28;123678;-75
2022/05/01 02:43:39;;;;;;;12.38;7.78;;;;;;;12.98;49.60;102349.88;4950913;28;115224;-75
2022/05/01 02:46:06;;;;;;;13.63;8.15;;;;;;;12.98;49.53;102344.56;4935565;28;114947;-75
2022/05/01 02:48:33;;;;;;;14.75;8.07;;;;;;;12.97;49.59;102353.44;4935882;28;124073;-74
2022/05/01 02:51:04;;;;;;;15.85;8.02;;;;;;;12.98;49.65;102349.88;4929656;28;123702;-75
2022/05/01 02:53:32;;;;;;;12.93;8.32;;;;;;;12.98;49.59;102343.69;4948069;28;112286;-74
2022/05/01 02:56:02;;;;;;;13.10;7.57;;;;;;;12.98;49.86;102349.88;4932708;28;113886;-73
2022/05/01 02:58:30;;;;;;;13.35;7.85;;;;;;;12.97;49.57;102337.47;4950640;28;124010;-75
2022/05/01 03:00:57;;;;;;;13.10;7.97;;;;;;;12.95;49.83;102344.63;4938059;28;124717;-73
2022/05/01 03:03:25;;;;;;;13.23;8.18;;;;;;;12.93;49.67;102345.63;4945468;28;113158;-75
2022/05/01 03:05:53;;;;;;;12.60;8.43;;;;;;;12.91;49.59;102347.47;4938608;28;113739;-73
2022/05/01 03:08:21;;;;;;;11.15;7.43;;;;;;;12.87;49.64;102346.69;4929504;28;123783;-72
2022/05/01 03:10:48;;;;;;;12.27;8.02;;;;;;;12.85;49.79;102337.88;4949756;28;124246;-73
2022/05/01 03:13:17;;;;;;;13.43;7.70;;;;;;;12.82;49.92;102343.28;4944321;28;114119;-73
2022/05/01 03:15:44;;;;;;;13.30;8.10;;;;;;;12.79;49.86;102338.03;4939585;28;113542;-73
2022/05/01 03:23:46;;;;;;;12.88;8.73;;;;;;;12.69;50.12;102341.91;4941632;28;113696;-74
2022/05/01 03:26:16;;;;;;;15.40;8.35;;;;;;;12.65;50.22;102342.00;4932882;28;115203;-73
2022/05/01 03:28:45;;;;;;;14.25;8.85;;;;;;;12.63;50.13;102338.50;4950277;28;123827;-74
2022/05/01 03:31:13;;;;;;;12.88;7.75;;;;;;;12.65;50.04;102330.50;4923229;28;124208;-74
2022/05/01 03:33:41;;;;;;;13.05;7.70;;;;;;;12.65;50.19;102336.66;4938287;28;115368;-73
2022/05/01 03:36:09;;;;;;;14.52;8.48;;;;;;;12.66;50.33;102338.44;4946081;28;113933;-74
2022/05/01 03:38:38;;;;;;;13.38;8.10;;;;;;;12.65;50.33;102331.34;4955420;28;123072;-74
2022/05/01 03:41:07;;;;;;;14.13;8.10;;;;;;;12.66;50.24;102327.78;4952619;28;123752;-73
2022/05/01 03:43:35;;;;;;;11.32;7.35;;;;;;;12.65;50.27;102331.34;4919749;28;114156;-74
2022/05/01 03:46:04;;;;;;;16.00;8.32;;;;;;;12.65;50.32;102331.34;4952732;28;112748;-73
2022/05/01 03:48:32;;;;;;;13.68;7.68;;;;;;;12.65;50.51;102320.72;4949541;28;123173;-74
2022/05/01 03:50:59;;;;;;;13.85;8.32;;;;;;;12.65;50.32;102328.69;4944743;28;123877;-74
2022/05/01 03:53:26;;;;;;;13.75;8.18;;;;;;;12.64;50.32;102332.28;4919669;28;113874;-73
2022/05/01 03:55:54;;;;;;;12.55;7.90;;;;;;;12.64;50.58;102324.31;4939806;28;114651;-73
2022/05/01 03:58:21;;;;;;;14.68;7.93;;;;;;;12.64;50.67;102334.09;4934821;28;124427;-73
2022/05/01 04:00:48;;;;;;;13.80;7.68;;;;;;;12.63;50.78;102333.19;4938290;28;124033;-73
2022/05/01 04:03:17;;;;;;;16.70;9.07;;;;;;;12.61;50.69;102324.41;4935722;28;114081;-75
2022/05/01 04:05:44;;;;;;;15.25;8.40;;;;;;;12.60;50.63;102327.97;4952141;28;113203;-74
2022/05/01 04:08:11;;;;;;;12.38;7.63;;;;;;;12.59;50.57;102326.22;4930926;28;123947;-74
2022/05/01 04:10:41;;;;;;;13.80;8.20;;;;;;;12.59;50.75;102330.69;4933216;28;123853;-73
2022/05/01 04:13:09;;;;;;;13.52;8.18;;;;;;;12.59;50.80;102336.84;4946353;28;113228;-74
2022/05/01 04:15:37;;;;;;;13.65;8.85;;;;;;;12.59;51.00;102320.91;4943783;28;113283;-74
2022/05/01 04:18:06;;;;;;;15.98;9.20;;;;;;;12.58;50.89;102329.81;4930489;28;124008;-73
2022/05/01 04:20:33;;;;;;;14.80;8.30;;;;;;;12.57;50.73;102329.84;4913312;28;124587;-74
2022/05/01 04:23:03;;;;;;;12.40;7.85;;;;;;;12.54;50.89;102333.47;4944010;28;113965;-74
2022/05/01 04:25:30;;;;;;;13.05;7.90;;;;;;;12.53;51.18;102337.06;4933427;28;114560;-74
2022/05/01 04:28:06;;;;;;;14.73;8.50;;;;;;;12.53;51.30;102337.06;4929906;28;123907;-74
2022/05/01 04:30:33;;;;;;;14.30;8.52;;;;;;;12.53;51.17;102329.06;4927754;28;124025;-74
2022/05/01 04:33:04;;;;;;;13.50;7.85;;;;;;;12.54;51.05;102333.47;4944825;28;114355;-74
2022/05/01 04:35:31;;;;;;;15.18;8.80;;;;;;;12.55;51.12;102329.91;4928988;28;113405;-73
2022/05/01 04:38:03;;;;;;;13.82;8.55;;;;;;;12.56;50.98;102336.94;4929555;28;124204;-74
2022/05/01 04:40:34;;;;;;;15.98;8.52;;;;;;;12.56;51.38;102333.41;4928276;28;123856;-74
2022/05/01 04:43:09;;;;;;;17.17;8.80;;;;;;;12.56;51.45;102336.94;4947881;28;113457;-74
2022/05/01 04:45:38;;;;;;;14.77;9.07;;;;;;;12.59;51.22;102341.31;4947241;28;112929;-74
2022/05/01 04:48:06;;;;;;;14.95;8.43;;;;;;;12.59;51.18;102331.53;4913100;28;124088;-74
2022/05/01 04:50:33;;;;;;;15.15;8.88;;;;;;;12.61;51.43;102331.50;4928675;28;123778;-74
2022/05/01 04:53:01;;;;;;;14.00;8.02;;;;;;;12.63;51.32;102341.16;4929803;28;114384;-74
2022/05/01 04:55:29;;;;;;;15.05;8.50;;;;;;;12.64;51.11;102340.25;4928482;28;114539;-74
2022/05/01 04:57:57;;;;;;;13.25;8.25;;;;;;;12.65;51.18;102347.31;4944359;28;123091;-74
2022/05/01 05:00:25;;;;;;;14.55;8.68;;;;;;;12.66;51.53;102343.75;4928931;28;123880;-74
2022/05/01 05:02:54;;;;;;;15.88;9.07;;;;;;;12.69;51.54;102341.91;4944609;28;113378;-74
2022/05/01 05:05:21;;;;;;;14.95;8.60;;;;;;;12.70;51.43;102339.22;4945032;28;114327;-74
2022/05/01 05:07:48;;;;;;;14.27;8.85;;;;;;;12.73;51.18;102348.88;4929526;28;124524;-74
2022/05/01 05:10:16;;;;;;;14.60;8.50;;;;;;;12.74;51.40;102345.31;4928702;28;124075;-74
2022/05/01 05:12:46;;;;;;;15.57;8.90;;;;;;;12.76;51.63;102348.78;4944252;28;115044;-74
2022/05/01 05:15:16;;;;;;;16.10;9.57;;;;;;;12.79;51.80;102343.34;4944435;28;115134;-74
2022/05/01 05:17:43;;;;;;;15.13;8.60;;;;;;;12.81;51.30;102344.22;4927077;28;123397;-74
2022/05/01 05:20:12;;;;;;;14.93;9.25;;;;;;;12.85;51.70;102343.19;4928841;28;125365;-75
2022/05/01 05:22:40;;;;;;;15.57;9.63;;;;;;;12.87;51.58;102346.69;4937634;28;114283;-74
2022/05/01 05:25:11;;;;;;;15.35;9.27;;;;;;;12.90;51.62;102349.22;4935467;28;115210;-73
2022/05/01 05:27:39;;;;;;;17.63;9.70;;;;;;;12.91;51.79;102348.31;4940023;28;123870;-73
2022/05/01 05:30:07;;;;;;;16.90;9.95;;;;;;;12.93;51.72;102350.94;4949482;28;123982;-75
2022/05/01 05:32:36;;;;;;;16.55;9.35;;;;;;;12.96;51.65;102351.72;4934435;28;114469;-75
2022/05/01 05:35:04;;;;;;;16.42;9.85;;;;;;;12.96;51.39;102351.72;4917036;28;114423;-74
2022/05/01 05:37:32;;;;;;;18.05;10.07;;;;;;;13.00;51.65;102357.81;4948244;28;123224;-74
2022/05/01 05:39:59;;;;;;;15.90;9.57;;;;;;;13.01;51.81;102352.41;4940213;28;123799;-74
2022/05/01 05:42:26;;;;;;;17.25;9.48;;;;;;;13.06;51.70;102362.94;4935313;28;114665;-74
2022/05/01 05:44:53;;;;;;;14.90;9.13;;;;;;;13.10;51.67;102363.72;4949085;28;113280;-74
2022/05/01 05:47:21;;;;;;;17.15;9.75;;;;;;;13.15;51.73;102367.13;4931088;28;123903;-74
2022/05/01 05:49:48;;;;;;;15.45;10.18;;;;;;;13.20;51.66;102365.16;4930677;28;123511;-73
2022/05/01 05:52:20;;;;;;;17.65;9.73;;;;;;;13.23;51.62;102365.94;4932613;28;114207;-74
2022/05/01 05:54:48;;;;;;;15.98;10.02;;;;;;;13.26;51.81;102364.97;4931411;28;113633;-74
2022/05/01 05:57:15;;;;;;;18.55;10.60;;;;;;;13.28;51.68;102365.81;4930729;28;125329;-73
2022/05/01 05:59:42;;;;;;;17.85;10.43;;;;;;;13.26;51.66;102359.66;4930101;28;123730;-73
2022/05/01 06:02:09;;;;;;;16.98;9.88;;;;;;;13.24;51.68;102361.47;4947477;28;115113;-74
2022/05/01 06:04:37;;;;;;;19.00;10.70;;;;;;;13.24;52.08;102361.47;4931721;28;116201;-74
2022/05/01 06:07:04;;;;;;;15.35;10.23;;;;;;;13.24;51.70;102361.47;4930280;28;124101;-74
2022/05/01 06:09:32;;;;;;;17.80;9.95;;;;;;;13.24;51.83;102356.16;4931632;28;123893;-74
2022/05/01 06:11:59;;;;;;;20.10;10.43;;;;;;;13.24;51.68;102356.16;4931024;28;113877;-75
2022/05/01 06:14:27;;;;;;;16.52;10.50;;;;;;;13.24;51.78;102340.19;4930810;28;114194;-73
2022/05/01 06:16:54;;;;;;;17.25;10.02;;;;;;;13.25;51.83;102357.91;4930880;28;124143;-72
2022/05/01 06:19:21;;;;;;;19.02;10.40;;;;;;;13.27;51.68;102356.06;4927387;28;124829;-73
2022/05/01 06:21:48;;;;;;;17.38;9.90;;;;;;;13.31;51.77;102363.06;4931386;28;114082;-73
2022/05/01 06:24:15;;;;;;;18.35;10.15;;;;;;;13.36;51.91;102361.13;4932021;28;113843;-73
2022/05/01 06:26:42;;;;;;;16.30;9.93;;;;;;;13.42;52.01;102371.56;4964469;28;123285;-74
2022/05/01 06:29:09;;;;;;;17.27;10.20;;;;;;;13.50;51.81;102373.09;4949795;28;124720;-73
2022/05/01 06:31:41;;;;;;;18.60;10.05;;;;;;;13.59;51.94;102375.47;4948062;28;114624;-73
2022/05/01 06:34:11;;;;;;;18.08;10.20;;;;;;;13.70;51.99;102380.44;4950438;28;113995;-74
2022/05/01 06:36:38;;;;;;;16.00;10.10;;;;;;;13.80;51.93;102377.41;4965438;28;124619;-72
2022/05/01 06:39:06;;;;;;;16.17;9.60;;;;;;;13.88;51.56;102378.94;4933156;28;123448;-73
2022/05/01 06:41:33;;;;;;;19.67;10.07;;;;;;;13.95;51.85;102380.47;4964990;28;113219;-73
2022/05/01 06:44:00;;;;;;;15.93;9.80;;;;;;;14.03;51.55;102378.41;4951556;28;113710;-73
2022/05/01 06:46:27;;;;;;;17.50;10.55;;;;;;;14.07;51.35;102374.72;4950672;28;124285;-74
2022/05/01 06:48:54;;;;;;;16.23;9.98;;;;;;;14.10;51.27;102379.94;4950993;28;124029;-73
2022/05/01 06:51:21;;;;;;;15.73;10.15;;;;;;;14.13;51.10;102369.19;4948238;28;114786;-73
2022/05/01 06:53:49;;;;;;;15.85;10.00;;;;;;;14.18;51.18;102367.22;4933398;28;114880;-73
2022/05/01 06:56:16;;;;;;;17.17;10.38;;;;;;;14.24;51.20;102371.47;4950397;28;124821;-74
2022/05/01 06:58:43;;;;;;;17.70;9.90;;;;;;;14.36;51.31;102375.47;4965598;28;123834;-74
2022/05/01 07:01:10;;;;;;;15.90;9.77;;;;;;;14.46;50.96;102366.19;4950824;28;115151;-72
2022/05/01 07:03:37;;;;;;;16.08;9.77;;;;;;;14.55;50.93;102360.53;4950911;28;114394;-73
2022/05/01 07:06:05;;;;;;;20.17;10.90;;;;;;;14.64;50.99;102370.03;4948069;28;123602;-73
2022/05/01 07:08:32;;;;;;;14.20;9.85;;;;;;;14.76;50.95;102374.03;4965433;28;123242;-73
2022/05/01 07:10:59;;;;;;;19.98;10.02;;;;;;;14.86;50.64;102375.44;4950170;28;114187;-74
2022/05/01 07:13:26;;;;;;;15.35;10.15;;;;;;;14.91;50.60;102368.09;4933533;28;114561;-74
2022/05/01 07:15:53;;;;;;;17.20;9.55;;;;;;;14.97;50.35;102373.22;4949835;28;124890;-73
2022/05/01 07:18:20;;;;;;;14.55;9.35;;;;;;;15.03;50.22;102373.88;4950111;28;123592;-73
2022/05/01 07:20:47;;;;;;;17.98;9.70;;;;;;;15.08;50.24;102374.56;4950002;28;114096;-74
2022/05/01 07:23:15;;;;;;;14.82;9.10;;;;;;;15.12;50.13;102376.19;4965941;28;114387;-73
2022/05/01 07:25:42;;;;;;;15.35;9.80;;;;;;;15.17;50.18;102376.88;4950374;28;123882;-73
2022/05/01 07:28:09;;;;;;;15.95;10.23;;;;;;;15.23;50.06;102373.09;4949910;28;124538;-74
2022/05/01 07:30:36;;;;;;;16.08;9.57;;;;;;;15.28;49.56;102377.31;4950045;28;114097;-73
2022/05/01 07:33:03;;;;;;;17.63;9.52;;;;;;;15.33;49.71;102378.00;4932789;28;114802;-73
2022/05/01 07:35:30;;;;;;;14.45;9.23;;;;;;;15.38;49.63;102384.00;4950376;28;124606;-73
2022/05/01 07:38:01;;;;;;;16.38;9.27;;;;;;;15.44;49.54;102376.69;4949996;28;124741;-73
2022/05/01 07:40:29;;;;;;;13.98;9.82;;;;;;;15.50;49.42;102388.00;4949592;28;115269;-74
2022/05/01 07:42:56;;;;;;;19.20;9.80;;;;;;;15.56;49.52;102381.53;4949539;28;115516;-74
2022/05/01 07:45:24;;;;;;;14.20;9.52;;;;;;;15.63;49.62;102383.00;4949884;28;122925;-74
2022/05/01 07:47:58;;;;;;;14.45;8.95;;;;;;;15.74;49.53;102375.44;4965257;28;123352;-73
2022/05/01 07:50:25;;;;;;;18.08;10.27;;;;;;;15.84;49.59;102385.75;4935104;28;114517;-74
2022/05/01 07:52:53;;;;;;;16.02;9.65;;;;;;;15.91;49.19;102381.88;4965469;28;113102;-74
2022/05/01 07:55:20;;;;;;;16.60;9.02;;;;;;;15.95;48.67;102378.13;4948195;28;125413;-74
2022/05/01 07:57:47;;;;;;;13.40;9.30;;;;;;;15.99;48.96;102379.72;4964703;28;123673;-74
2022/05/01 08:00:14;;;;;;;16.27;9.32;;;;;;;16.04;48.64;102383.09;4963317;28;114394;-73
2022/05/01 08:05:29;;;;;;;13.25;8.43;;;;;;;16.14;48.46;102379.09;4948201;28;123636;-74
2022/05/01 08:07:57;;;;;;;14.18;8.25;;;;;;;16.15;48.04;102386.16;4947834;28;124075;-74
2022/05/01 08:10:25;;;;;;;12.70;8.23;;;;;;;16.19;48.12;102380.69;4947707;28;113906;-73
2022/05/01 08:12:52;;;;;;;13.20;7.65;;;;;;;16.24;48.15;102378.69;4949897;28;113842;-73
2022/05/01 08:15:19;;;;;;;12.18;8.00;;;;;;;16.30;48.02;102383.75;4949764;28;123915;-73
2022/05/01 08:17:47;;;;;;;14.10;8.20;;;;;;;16.38;48.36;102376.25;4949275;28;124842;-73
2022/05/01 08:23:07;;;;;;;11.05;7.65;;;;;;;16.63;47.98;102380.47;4950239;28;114159;-73
2022/05/01 08:25:35;;;;;;;11.27;7.70;;;;;;;16.75;48.13;102379.91;4948381;28;123825;-73
2022/05/01 08:28:02;;;;;;;12.43;8.07;;;;;;;16.86;48.01;102377.66;4948270;28;124593;-74
2022/05/01 08:30:30;;;;;;;13.57;8.38;;;;;;;16.97;47.30;102378.94;4931353;28;116180;-74
2022/05/01 08:32:57;;;;;;;12.40;7.60;;;;;;;17.03;47.38;102373.31;4932351;28;114080;-74
2022/05/01 08:35:24;;;;;;;12.43;7.50;;;;;;;17.12;47.24;102372.84;4949325;28;124069;-74
2022/05/01 08:37:51;;;;;;;13.43;7.45;;;;;;;17.21;46.83;102379.56;4949359;28;123879;-73
2022/05/01 08:40:18;;;;;;;11.23;7.18;;;;;;;17.25;46.08;102374.00;4931465;28;114799;-74
2022/05/01 08:42:49;;;;;;;12.50;7.57;;;;;;;17.25;46.31;102374.00;4949476;28;114403;-73
2022/05/01 08:45:19;;;;;;;9.93;7.13;;;;;;;17.31;46.49;102368.34;4964447;28;123698;-73
2022/05/01 08:48:00;;;;;;;14.68;7.72;;;;;;;17.39;46.40;102359.06;4964274;28;124844;-74
2022/05/01 08:50:27;;;;;;;12.10;7.55;;;;;;;17.50;45.90;102364.75;4946456;28;114024;-73
2022/05/01 08:52:55;;;;;;;12.02;7.28;;;;;;;17.52;45.34;102365.56;4949458;28;113926;-73
2022/05/01 08:55:23;;;;;;;11.32;7.57;;;;;;;17.50;44.91;102367.44;4949545;28;124613;-73
2022/05/01 08:57:50;;;;;;;13.65;7.35;;;;;;;17.45;44.80;102364.13;4952690;28;124311;-74
2022/05/01 09:00:18;;;;;;;11.38;7.55;;;;;;;17.43;45.25;102366.88;4951753;28;114308;-73
2022/05/01 09:02:45;;;;;;;11.65;7.88;;;;;;;17.47;45.51;102356.88;4952435;28;113669;-74
2022/05/01 09:05:13;;;;;;;14.13;7.68;;;;;;;17.54;45.23;102362.78;4967320;28;123856;-73
2022/05/01 09:07:40;;;;;;;12.40;7.35;;;;;;;17.56;45.02;102361.78;4952028;28;124389;-73
2022/05/01 09:10:08;;;;;;;13.32;8.85;;;;;;;17.63;45.22;102357.84;4951987;28;114509;-73
2022/05/01 09:12:53;;;;;;;12.18;7.53;;;;;;;17.69;44.67;102360.22;4953040;28;113982;-73
2022/05/01 09:15:41;;;;;;;10.60;7.32;;;;;;;17.76;44.82;102357.19;4966883;28;123550;-73
2022/05/01 09:18:11;;;;;;;13.90;8.45;;;;;;;17.84;44.77;102355.91;4952029;28;123934;-74
2022/05/01 09:21:02;;;;;;;13.00;7.95;;;;;;;17.96;45.06;102354.41;4950118;28;115731;-74
2022/05/01 09:23:37;;;;;;;11.75;7.50;;;;;;;18.09;44.49;102355.47;4952449;28;115694;-74
2022/05/01 09:26:06;;;;;;;12.95;7.72;;;;;;;18.14;44.20;102357.06;4934184;28;123269;-73
2022/05/01 09:28:55;;;;;;;14.25;7.60;;;;;;;18.17;43.75;102356.91;4966754;28;124207;-74
2022/05/01 09:31:46;;;;;;;11.77;7.20;;;;;;;18.18;43.46;102358.66;4966111;28;112353;-74
2022/05/01 09:34:25;;;;;;;10.40;6.95;;;;;;;18.14;42.85;102352.56;4952221;28;114529;-74
2022/05/01 09:36:52;;;;;;;11.07;7.10;;;;;;;18.07;43.30;102357.38;4950323;28;124595;-73
2022/05/01 09:39:22;;;;;;;10.98;6.78;;;;;;;18.00;43.15;102360.47;4951001;28;124309;-74
2022/05/01 09:41:50;;;;;;;11.35;6.85;;;;;;;17.89;42.84;102363.69;4949959;28;113787;-74
2022/05/01 09:44:19;;;;;;;11.73;7.10;;;;;;;17.75;42.76;102360.84;4950396;28;113323;-74
2022/05/01 09:46:48;;;;;;;9.55;7.10;;;;;;;17.56;42.74;102367.13;4947946;28;124569;-74
2022/05/01 09:49:19;;;;;;;9.57;6.57;;;;;;;17.41;42.89;102362.53;4951689;28;123883;-74
2022/05/01 09:51:55;;;;;;;11.02;7.00;;;;;;;17.23;43.38;102367.84;4933092;28;115193;-74
2022/05/01 09:54:25;;;;;;;12.73;6.90;;;;;;;17.10;43.38;102364.03;4951658;28;115193;-74
2022/05/01 09:56:58;;;;;;;13.45;6.70;;;;;;;16.98;43.48;102359.28;4950136;28;124578;-74
2022/05/01 09:59:27;;;;;;;9.18;6.72;;;;;;;16.88;43.59;102365.06;4950225;28;123830;-74
2022/05/01 10:02:02;;;;;;;11.15;6.65;;;;;;;16.80;43.82;102361.84;4951305;28;113835;-74
2022/05/01 10:04:33;;;;;;;9.95;6.00;;;;;;;16.73;43.96;102363.06;4951658;28;114285;-74
2022/05/01 10:07:01;;;;;;;10.52;6.82;;;;;;;16.69;44.11;102364.16;4949064;28;123716;-74
2022/05/01 10:09:31;;;;;;;11.18;6.70;;;;;;;16.66;44.08;102369.66;4950083;28;123663;-73
2022/05/01 10:12:03;;;;;;;13.48;6.68;;;;;;;16.63;44.10;102364.44;4950488;28;115325;-74
2022/05/01 10:14:32;;;;;;;11.05;7.03;;;;;;;16.60;44.27;102372.63;4966649;28;112987;-74
2022/05/01 10:17:00;;;;;;;9.00;6.35;;;;;;;16.58;44.30;102363.78;4951434;28;124187;-74
2022/05/01 10:19:28;;;;;;;11.65;6.95;;;;;;;16.58;44.14;102361.13;4951273;28;124240;-73
2022/05/01 10:21:57;;;;;;;9.68;6.50;;;;;;;16.54;43.95;102369.28;4965561;28;114058;-73
2022/05/01 10:24:25;;;;;;;10.00;6.53;;;;;;;16.50;44.35;102367.69;4938183;28;113789;-74
2022/05/01 10:27:02;;;;;;;10.48;6.80;;;;;;;16.48;44.26;102361.53;4947320;28;123886;-74
2022/05/01 10:32:20;;;;;;;8.77;6.18;;;;;;;16.45;44.22;102369.69;4936935;28;124313;-74
2022/05/01 10:33:00;;;;;;;10.85;6.55;;;;;;;16.43;44.13;102362.69;4951075;28;114153;-74
2022/05/01 10:35:54;;;;;;;9.88;6.80;;;;;;;16.41;44.39;102365.41;4936069;28;114438;-74
2022/05/01 10:38:21;;;;;;;10.88;6.57;;;;;;;16.44;44.25;102354.56;4934630;28;123748;-73
2022/05/01 10:40:59;;;;;;;12.57;6.53;;;;;;;16.46;44.25;102363.41;4928487;28;124085;-75
2022/05/01 10:43:38;;;;;;;12.15;6.55;;;;;;;16.46;44.03;102360.75;4931309;28;114782;-74
2022/05/01 10:46:17;;;;;;;10.57;6.88;;;;;;;16.46;44.19;102358.06;4930874;28;114075;-73
2022/05/01 10:48:45;;;;;;;9.88;6.43;;;;;;;16.47;44.33;102349.09;4938234;28;124562;-74
2022/05/01 10:51:30;;;;;;;10.20;6.47;;;;;;;16.50;44.27;102356.09;4935900;28;124337;-74
2022/05/01 10:54:30;;;;;;;11.23;6.40;;;;;;;16.53;44.23;102354.16;4931742;28;114366;-74
2022/05/01 10:57:09;;;;;;;9.63;6.20;;;;;;;16.58;44.22;102350.41;4948987;28;113260;-73
2022/05/01 10:59:47;;;;;;;9.52;6.50;;;;;;;16.61;43.75;102344.91;4930476;28;125272;-72
2022/05/01 11:02:30;;;;;;;9.07;6.53;;;;;;;16.65;43.96;102346.50;4933926;28;124254;-73
2022/05/01 11:04:59;;;;;;;10.00;6.95;;;;;;;16.71;43.56;102340.88;4940479;28;115466;-73
2022/05/01 11:07:28;;;;;;;10.35;6.28;;;;;;;16.77;43.76;102335.22;4920673;28;113969;-73
2022/05/01 11:10:00;;;;;;;11.25;6.63;;;;;;;16.84;43.54;102336.72;4921592;28;123900;-72
2022/05/01 11:12:30;;;;;;;9.45;6.10;;;;;;;16.91;43.46;102332.81;4914718;28;123651;-73
2022/05/01 11:14:59;;;;;;;11.90;6.70;;;;;;;17.01;43.52;102343.03;4934570;28;113778;-73
2022/05/01 11:18:10;;;;;;;9.80;6.32;;;;;;;17.10;43.36;102337.25;4930640;28;114473;-73
2022/05/01 11:20:31;;;;;;;9.77;6.55;;;;;;;17.20;43.18;102321.63;4929015;28;123794;-73
2022/05/01 11:23:18;;;;;;;9.35;6.13;;;;;;;17.31;43.17;102320.16;4945905;28;123730;-73
2022/05/01 11:25:47;;;;;;;11.80;7.07;;;;;;;17.43;42.57;102320.47;4931420;28;114926;-74
2022/05/01 11:28:45;;;;;;;11.38;7.10;;;;;;;17.52;42.34;102317.34;4930971;28;113011;-73
2022/05/01 11:31:36;;;;;;;10.07;7.32;;;;;;;17.56;42.12;102308.19;4939989;28;124596;-73
2022/05/01 11:34:15;;;;;;;11.80;6.40;;;;;;;17.61;41.70;102303.47;4950103;28;123923;-73
2022/05/01 11:37:04;;;;;;;10.32;6.90;;;;;;;17.68;41.55;102296.81;4931176;28;113929;-73
2022/05/01 11:39:47;;;;;;;10.38;7.05;;;;;;;17.76;41.86;102298.25;4947080;28;113593;-71